sensor_id;sensor_type;location;lat;lon;timestamp;temperature;humidity
20242;DHT22;10279;46.388;8.116;2024-01-30T00:01:03;7.70;99.90
20242;DHT22;10279;46.388;8.116;2024-01-30T00:03:31;7.70;99.90
20242;DHT22;10279;46.388;8.116;2024-01-30T00:05:58;7.60;99.90
20242;DHT22;10279;46.388;8.116;2024-01-30T00:08:27;7.70;99.90
20242;DHT22;10279;46.388;8.116;2024-01-30T00:10:55;7.60;99.90
20242;DHT22;10279;46.388;8.116;2024-01-30T00:13:22;7.60;99.90
20242;DHT22;10279;46.388;8.116;2024-01-30T00:15:50;7.50;99.90
20242;DHT22;10279;46.388;8.116;2024-01-30T00:18:17;7.50;99.90
20242;DHT22;10279;46.388;8.116;2024-01-30T00:20:45;7.50;99.90
20242;DHT22;10279;46.388;8.116;2024-01-30T00:23:12;7.50;99.90
20242;DHT22;10279;46.388;8.116;2024-01-30T00:25:39;7.50;99.90
20242;DHT22;10279;46.388;8.116;2024-01-30T00:28:06;7.50;99.90
20242;DHT22;10279;46.388;8.116;2024-01-30T00:30:34;7.40;99.90
20242;DHT22;10279;46.388;8.116;2024-01-30T00:33:01;7.30;99.90
20242;DHT22;10279;46.388;8.116;2024-01-30T00:35:28;7.30;99.90
20242;DHT22;10279;46.388;8.116;2024-01-30T00:37:56;7.30;99.90
20242;DHT22;10279;46.388;8.116;2024-01-30T00:40:24;7.30;99.90
20242;DHT22;10279;46.388;8.116;2024-01-30T00:42:51;7.20;99.90
20242;DHT22;10279;46.388;8.116;2024-01-30T00:45:19;7.30;99.90
20242;DHT22;10279;46.388;8.116;2024-01-30T00:47:46;7.20;99.90
20242;DHT22;10279;46.388;8.116;2024-01-30T00:50:13;7.20;99.90
20242;DHT22;10279;46.388;8.116;2024-01-30T00:52:40;7.30;99.90
20242;DHT22;10279;46.388;8.116;2024-01-30T00:55:08;7.30;99.90
20242;DHT22;10279;46.388;8.116;2024-01-30T00:57:35;7.30;99.90
20242;DHT22;10279;46.388;8.116;2024-01-30T01:00:03;7.30;99.90
20242;DHT22;10279;46.388;8.116;2024-01-30T01:02:33;7.30;99.90
20242;DHT22;10279;46.388;8.116;2024-01-30T01:05:02;7.20;99.90
20242;DHT22;10279;46.388;8.116;2024-01-30T01:07:29;7.20;99.90
20242;DHT22;10279;46.388;8.116;2024-01-30T01:09:56;7.20;99.90
20242;DHT22;10279;46.388;8.116;2024-01-30T01:12:24;7.20;99.90
20242;DHT22;10279;46.388;8.116;2024-01-30T01:14:51;7.20;99.90
20242;DHT22;10279;46.388;8.116;2024-01-30T01:17:18;7.10;99.90
20242;DHT22;10279;46.388;8.116;2024-01-30T01:19:45;7.10;99.90
20242;DHT22;10279;46.388;8.116;2024-01-30T01:22:12;7.00;99.90
20242;DHT22;10279;46.388;8.116;2024-01-30T01:24:39;7.00;99.90
20242;DHT22;10279;46.388;8.116;2024-01-30T01:27:07;7.00;99.90
20242;DHT22;10279;46.388;8.116;2024-01-30T01:29:34;7.00;99.90
20242;DHT22;10279;46.388;8.116;2024-01-30T01:32:01;7.00;99.90
20242;DHT22;10279;46.388;8.116;2024-01-30T01:34:28;7.00;99.90
20242;DHT22;10279;46.388;8.116;2024-01-30T01:36:56;7.00;99.90
20242;DHT22;10279;46.388;8.116;2024-01-30T01:39:24;7.00;99.90
20242;DHT22;10279;46.388;8.116;2024-01-30T01:41:51;7.00;99.90
20242;DHT22;10279;46.388;8.116;2024-01-30T01:44:19;6.90;99.90
20242;DHT22;10279;46.388;8.116;2024-01-30T01:46:46;7.00;99.90
20242;DHT22;10279;46.388;8.116;2024-01-30T01:49:14;7.00;99.90
20242;DHT22;10279;46.388;8.116;2024-01-30T01:51:44;7.00;99.90
20242;DHT22;10279;46.388;8.116;2024-01-30T01:54:14;6.90;99.90
20242;DHT22;10279;46.388;8.116;2024-01-30T01:56:42;6.90;99.90
20242;DHT22;10279;46.388;8.116;2024-01-30T01:59:09;7.00;99.90
20242;DHT22;10279;46.388;8.116;2024-01-30T02:01:37;7.00;99.90
20242;DHT22;10279;46.388;8.116;2024-01-30T02:04:05;7.00;99.90
20242;DHT22;10279;46.388;8.116;2024-01-30T02:06:32;6.90;99.90
20242;DHT22;10279;46.388;8.116;2024-01-30T02:09:00;7.00;99.90
20242;DHT22;10279;46.388;8.116;2024-01-30T02:11:28;6.90;99.90
20242;DHT22;10279;46.388;8.116;2024-01-30T02:13:56;6.90;99.90
20242;DHT22;10279;46.388;8.116;2024-01-30T02:16:23;7.00;99.90
20242;DHT22;10279;46.388;8.116;2024-01-30T02:18:50;7.00;99.90
20242;DHT22;10279;46.388;8.116;2024-01-30T02:21:18;7.00;99.90
20242;DHT22;10279;46.388;8.116;2024-01-30T02:23:49;7.00;99.90
20242;DHT22;10279;46.388;8.116;2024-01-30T02:26:17;7.00;99.90
20242;DHT22;10279;46.388;8.116;2024-01-30T02:28:44;7.00;99.90
20242;DHT22;10279;46.388;8.116;2024-01-30T02:31:11;7.00;99.90
20242;DHT22;10279;46.388;8.116;2024-01-30T02:33:38;7.00;99.90
20242;DHT22;10279;46.388;8.116;2024-01-30T02:36:05;6.90;99.90
20242;DHT22;10279;46.388;8.116;2024-01-30T02:38:32;6.80;99.90
20242;DHT22;10279;46.388;8.116;2024-01-30T02:40:59;6.80;99.90
20242;DHT22;10279;46.388;8.116;2024-01-30T02:43:26;6.70;99.90
20242;DHT22;10279;46.388;8.116;2024-01-30T02:45:54;6.70;99.90
20242;DHT22;10279;46.388;8.116;2024-01-30T02:48:21;6.70;99.90
20242;DHT22;10279;46.388;8.116;2024-01-30T02:50:48;6.70;99.90
20242;DHT22;10279;46.388;8.116;2024-01-30T02:53:15;6.70;99.90
20242;DHT22;10279;46.388;8.116;2024-01-30T02:55:42;6.70;99.90
20242;DHT22;10279;46.388;8.116;2024-01-30T02:58:09;6.60;99.90
20242;DHT22;10279;46.388;8.116;2024-01-30T03:00:36;6.60;99.90
20242;DHT22;10279;46.388;8.116;2024-01-30T03:03:04;6.70;99.90
20242;DHT22;10279;46.388;8.116;2024-01-30T03:05:31;6.70;99.90
20242;DHT22;10279;46.388;8.116;2024-01-30T03:07:58;6.70;99.90
20242;DHT22;10279;46.388;8.116;2024-01-30T03:10:26;6.70;99.90
20242;DHT22;10279;46.388;8.116;2024-01-30T03:12:53;6.60;99.90
20242;DHT22;10279;46.388;8.116;2024-01-30T03:15:20;6.60;99.90
20242;DHT22;10279;46.388;8.116;2024-01-30T03:17:47;6.60;99.90
20242;DHT22;10279;46.388;8.116;2024-01-30T03:20:14;6.60;99.90
20242;DHT22;10279;46.388;8.116;2024-01-30T03:22:41;6.70;99.90
20242;DHT22;10279;46.388;8.116;2024-01-30T03:25:08;6.60;99.90
20242;DHT22;10279;46.388;8.116;2024-01-30T03:27:35;6.50;99.90
20242;DHT22;10279;46.388;8.116;2024-01-30T03:30:03;6.50;99.90
20242;DHT22;10279;46.388;8.116;2024-01-30T03:32:30;6.50;99.90
20242;DHT22;10279;46.388;8.116;2024-01-30T03:34:57;6.60;99.90
20242;DHT22;10279;46.388;8.116;2024-01-30T03:37:25;6.50;99.90
20242;DHT22;10279;46.388;8.116;2024-01-30T03:39:52;6.60;99.90
20242;DHT22;10279;46.388;8.116;2024-01-30T03:42:19;6.60;99.90
20242;DHT22;10279;46.388;8.116;2024-01-30T03:44:46;6.60;99.90
20242;DHT22;10279;46.388;8.116;2024-01-30T03:47:13;6.50;99.90
20242;DHT22;10279;46.388;8.116;2024-01-30T03:49:41;6.50;99.90
20242;DHT22;10279;46.388;8.116;2024-01-30T03:52:08;6.40;99.90
20242;DHT22;10279;46.388;8.116;2024-01-30T03:54:35;6.50;99.90
20242;DHT22;10279;46.388;8.116;2024-01-30T03:57:02;6.50;99.90
20242;DHT22;10279;46.388;8.116;2024-01-30T03:59:30;6.50;99.90
20242;DHT22;10279;46.388;8.116;2024-01-30T04:01:57;6.50;99.90
20242;DHT22;10279;46.388;8.116;2024-01-30T04:04:24;6.50;99.90
20242;DHT22;10279;46.388;8.116;2024-01-30T04:06:51;6.50;99.90
20242;DHT22;10279;46.388;8.116;2024-01-30T04:09:18;6.40;99.90
20242;DHT22;10279;46.388;8.116;2024-01-30T04:11:45;6.40;99.90
20242;DHT22;10279;46.388;8.116;2024-01-30T04:14:12;6.50;99.90
20242;DHT22;10279;46.388;8.116;2024-01-30T04:16:39;6.40;99.90
20242;DHT22;10279;46.388;8.116;2024-01-30T04:19:07;6.40;99.90
20242;DHT22;10279;46.388;8.116;2024-01-30T04:21:34;6.40;99.90
20242;DHT22;10279;46.388;8.116;2024-01-30T04:24:01;6.40;99.90
20242;DHT22;10279;46.388;8.116;2024-01-30T04:26:28;6.40;99.90
20242;DHT22;10279;46.388;8.116;2024-01-30T04:28:55;6.30;99.90
20242;DHT22;10279;46.388;8.116;2024-01-30T04:31:22;6.20;99.90
20242;DHT22;10279;46.388;8.116;2024-01-30T04:33:49;6.30;99.90
20242;DHT22;10279;46.388;8.116;2024-01-30T04:36:17;6.20;99.90
20242;DHT22;10279;46.388;8.116;2024-01-30T04:38:44;6.30;99.90
20242;DHT22;10279;46.388;8.116;2024-01-30T04:41:11;6.30;99.90
20242;DHT22;10279;46.388;8.116;2024-01-30T04:43:38;6.30;99.90
20242;DHT22;10279;46.388;8.116;2024-01-30T04:46:05;6.20;99.90
20242;DHT22;10279;46.388;8.116;2024-01-30T04:48:32;6.30;99.90
20242;DHT22;10279;46.388;8.116;2024-01-30T04:50:59;6.30;99.90
20242;DHT22;10279;46.388;8.116;2024-01-30T04:53:30;6.40;99.90
20242;DHT22;10279;46.388;8.116;2024-01-30T04:55:58;6.40;99.90
20242;DHT22;10279;46.388;8.116;2024-01-30T04:58:25;6.30;99.90
20242;DHT22;10279;46.388;8.116;2024-01-30T05:00:52;6.40;99.90
20242;DHT22;10279;46.388;8.116;2024-01-30T05:03:19;6.40;99.90
20242;DHT22;10279;46.388;8.116;2024-01-30T05:05:47;6.40;99.90
20242;DHT22;10279;46.388;8.116;2024-01-30T05:08:14;6.40;99.90
20242;DHT22;10279;46.388;8.116;2024-01-30T05:10:41;6.30;99.90
20242;DHT22;10279;46.388;8.116;2024-01-30T05:13:08;6.30;99.90
20242;DHT22;10279;46.388;8.116;2024-01-30T05:15:36;6.30;99.90
20242;DHT22;10279;46.388;8.116;2024-01-30T05:18:03;6.30;99.90
20242;DHT22;10279;46.388;8.116;2024-01-30T05:20:30;6.30;99.90
20242;DHT22;10279;46.388;8.116;2024-01-30T05:22:57;6.30;99.90
20242;DHT22;10279;46.388;8.116;2024-01-30T05:25:25;6.30;99.90
20242;DHT22;10279;46.388;8.116;2024-01-30T05:27:52;6.30;99.90
20242;DHT22;10279;46.388;8.116;2024-01-30T05:30:19;6.30;99.90
20242;DHT22;10279;46.388;8.116;2024-01-30T05:32:46;6.30;99.90
20242;DHT22;10279;46.388;8.116;2024-01-30T05:35:13;6.30;99.90
20242;DHT22;10279;46.388;8.116;2024-01-30T05:37:41;6.30;99.90
20242;DHT22;10279;46.388;8.116;2024-01-30T05:40:08;6.30;99.90
20242;DHT22;10279;46.388;8.116;2024-01-30T05:42:35;6.30;99.90
20242;DHT22;10279;46.388;8.116;2024-01-30T05:45:03;6.30;99.90
20242;DHT22;10279;46.388;8.116;2024-01-30T05:47:32;6.40;99.90
20242;DHT22;10279;46.388;8.116;2024-01-30T05:49:59;6.30;99.90
20242;DHT22;10279;46.388;8.116;2024-01-30T05:52:26;6.20;99.90
20242;DHT22;10279;46.388;8.116;2024-01-30T05:54:53;6.20;99.90
20242;DHT22;10279;46.388;8.116;2024-01-30T05:57:20;6.20;99.90
20242;DHT22;10279;46.388;8.116;2024-01-30T05:59:47;6.20;99.90
20242;DHT22;10279;46.388;8.116;2024-01-30T06:02:14;6.20;99.90
20242;DHT22;10279;46.388;8.116;2024-01-30T06:04:42;6.20;99.90
20242;DHT22;10279;46.388;8.116;2024-01-30T06:07:09;6.20;99.90
20242;DHT22;10279;46.388;8.116;2024-01-30T06:09:36;6.20;99.90
20242;DHT22;10279;46.388;8.116;2024-01-30T06:12:04;6.20;99.90
20242;DHT22;10279;46.388;8.116;2024-01-30T06:14:32;6.20;99.90
20242;DHT22;10279;46.388;8.116;2024-01-30T06:17:00;6.20;99.90
20242;DHT22;10279;46.388;8.116;2024-01-30T06:19:27;6.20;99.90
20242;DHT22;10279;46.388;8.116;2024-01-30T06:21:54;6.30;99.90
20242;DHT22;10279;46.388;8.116;2024-01-30T06:24:21;6.30;99.90
20242;DHT22;10279;46.388;8.116;2024-01-30T06:26:48;6.30;99.90
20242;DHT22;10279;46.388;8.116;2024-01-30T06:29:15;6.20;99.90
20242;DHT22;10279;46.388;8.116;2024-01-30T06:31:46;6.30;99.90
20242;DHT22;10279;46.388;8.116;2024-01-30T06:34:13;6.30;99.90
20242;DHT22;10279;46.388;8.116;2024-01-30T06:36:40;6.40;99.90
20242;DHT22;10279;46.388;8.116;2024-01-30T06:39:07;6.40;99.90
20242;DHT22;10279;46.388;8.116;2024-01-30T06:41:34;6.50;99.90
20242;DHT22;10279;46.388;8.116;2024-01-30T06:44:02;6.50;99.90
20242;DHT22;10279;46.388;8.116;2024-01-30T06:46:30;6.60;99.90
20242;DHT22;10279;46.388;8.116;2024-01-30T06:48:58;6.50;99.90
20242;DHT22;10279;46.388;8.116;2024-01-30T06:51:25;6.50;99.90
20242;DHT22;10279;46.388;8.116;2024-01-30T06:53:52;6.60;99.90
20242;DHT22;10279;46.388;8.116;2024-01-30T06:56:19;6.50;99.90
20242;DHT22;10279;46.388;8.116;2024-01-30T06:58:50;6.50;99.90
20242;DHT22;10279;46.388;8.116;2024-01-30T07:01:17;6.60;99.90
20242;DHT22;10279;46.388;8.116;2024-01-30T07:03:44;6.50;99.90
20242;DHT22;10279;46.388;8.116;2024-01-30T07:06:11;6.50;99.90
20242;DHT22;10279;46.388;8.116;2024-01-30T07:08:39;6.50;99.90
20242;DHT22;10279;46.388;8.116;2024-01-30T07:11:06;6.50;99.90
20242;DHT22;10279;46.388;8.116;2024-01-30T07:13:34;6.50;99.90
20242;DHT22;10279;46.388;8.116;2024-01-30T07:16:02;6.50;99.90
20242;DHT22;10279;46.388;8.116;2024-01-30T07:18:29;6.40;99.90
20242;DHT22;10279;46.388;8.116;2024-01-30T07:20:56;6.50;99.90
20242;DHT22;10279;46.388;8.116;2024-01-30T07:23:23;6.50;99.90
20242;DHT22;10279;46.388;8.116;2024-01-30T07:25:50;6.50;99.90
20242;DHT22;10279;46.388;8.116;2024-01-30T07:28:17;6.60;99.90
20242;DHT22;10279;46.388;8.116;2024-01-30T07:30:44;6.60;99.90
20242;DHT22;10279;46.388;8.116;2024-01-30T07:33:12;6.60;99.90
20242;DHT22;10279;46.388;8.116;2024-01-30T07:35:40;6.70;99.90
20242;DHT22;10279;46.388;8.116;2024-01-30T07:38:07;6.80;99.90
20242;DHT22;10279;46.388;8.116;2024-01-30T07:40:34;6.80;99.90
20242;DHT22;10279;46.388;8.116;2024-01-30T07:43:02;6.90;99.90
20242;DHT22;10279;46.388;8.116;2024-01-30T07:45:30;6.90;99.90
20242;DHT22;10279;46.388;8.116;2024-01-30T07:48:00;6.90;99.90
20242;DHT22;10279;46.388;8.116;2024-01-30T07:50:28;6.90;99.90
20242;DHT22;10279;46.388;8.116;2024-01-30T07:52:56;6.90;99.90
20242;DHT22;10279;46.388;8.116;2024-01-30T07:55:24;7.30;99.90
20242;DHT22;10279;46.388;8.116;2024-01-30T07:57:55;7.90;99.90
20242;DHT22;10279;46.388;8.116;2024-01-30T08:00:23;8.50;99.90
20242;DHT22;10279;46.388;8.116;2024-01-30T08:02:50;9.00;99.90
20242;DHT22;10279;46.388;8.116;2024-01-30T08:05:21;9.30;99.90
20242;DHT22;10279;46.388;8.116;2024-01-30T08:07:52;9.40;99.90
20242;DHT22;10279;46.388;8.116;2024-01-30T08:10:20;9.40;99.90
20242;DHT22;10279;46.388;8.116;2024-01-30T08:12:47;9.30;99.90
20242;DHT22;10279;46.388;8.116;2024-01-30T08:15:15;9.10;99.90
20242;DHT22;10279;46.388;8.116;2024-01-30T08:17:42;8.90;99.90
20242;DHT22;10279;46.388;8.116;2024-01-30T08:20:09;8.50;99.90
20242;DHT22;10279;46.388;8.116;2024-01-30T08:22:39;8.30;99.90
20242;DHT22;10279;46.388;8.116;2024-01-30T08:25:09;8.00;99.90
20242;DHT22;10279;46.388;8.116;2024-01-30T08:27:37;7.80;99.90
20242;DHT22;10279;46.388;8.116;2024-01-30T08:30:06;7.60;99.90
20242;DHT22;10279;46.388;8.116;2024-01-30T08:32:34;7.50;99.90
20242;DHT22;10279;46.388;8.116;2024-01-30T08:35:01;7.40;99.90
20242;DHT22;10279;46.388;8.116;2024-01-30T08:37:32;7.30;99.90
20242;DHT22;10279;46.388;8.116;2024-01-30T08:39:59;7.20;99.90
20242;DHT22;10279;46.388;8.116;2024-01-30T08:42:27;7.20;99.90
20242;DHT22;10279;46.388;8.116;2024-01-30T08:44:54;7.20;99.90
20242;DHT22;10279;46.388;8.116;2024-01-30T08:47:22;7.20;99.90
20242;DHT22;10279;46.388;8.116;2024-01-30T08:49:49;7.10;99.90
20242;DHT22;10279;46.388;8.116;2024-01-30T08:52:17;7.10;99.90
20242;DHT22;10279;46.388;8.116;2024-01-30T08:54:44;7.00;99.90
20242;DHT22;10279;46.388;8.116;2024-01-30T08:57:12;7.00;99.90
20242;DHT22;10279;46.388;8.116;2024-01-30T08:59:39;6.90;99.90
20242;DHT22;10279;46.388;8.116;2024-01-30T09:02:07;7.00;99.90
20242;DHT22;10279;46.388;8.116;2024-01-30T09:04:39;6.90;99.90
20242;DHT22;10279;46.388;8.116;2024-01-30T09:07:08;7.00;99.90
20242;DHT22;10279;46.388;8.116;2024-01-30T09:09:40;7.00;99.90
20242;DHT22;10279;46.388;8.116;2024-01-30T09:12:09;7.00;99.90
20242;DHT22;10279;46.388;8.116;2024-01-30T09:14:39;7.00;99.90
20242;DHT22;10279;46.388;8.116;2024-01-30T09:17:08;7.00;99.90
20242;DHT22;10279;46.388;8.116;2024-01-30T09:19:35;6.90;99.90
20242;DHT22;10279;46.388;8.116;2024-01-30T09:22:03;6.90;99.90
20242;DHT22;10279;46.388;8.116;2024-01-30T09:24:31;7.00;99.90
20242;DHT22;10279;46.388;8.116;2024-01-30T09:26:58;7.00;99.90
20242;DHT22;10279;46.388;8.116;2024-01-30T09:29:25;7.00;99.90
20242;DHT22;10279;46.388;8.116;2024-01-30T09:31:52;7.00;99.90
20242;DHT22;10279;46.388;8.116;2024-01-30T09:34:19;7.00;99.90
20242;DHT22;10279;46.388;8.116;2024-01-30T09:36:47;7.00;99.90
20242;DHT22;10279;46.388;8.116;2024-01-30T09:39:14;7.10;99.90
20242;DHT22;10279;46.388;8.116;2024-01-30T09:41:49;7.10;99.90
20242;DHT22;10279;46.388;8.116;2024-01-30T09:44:20;7.10;99.90
20242;DHT22;10279;46.388;8.116;2024-01-30T09:46:48;7.20;99.90
20242;DHT22;10279;46.388;8.116;2024-01-30T09:49:16;7.20;99.90
20242;DHT22;10279;46.388;8.116;2024-01-30T09:51:48;7.30;99.90
20242;DHT22;10279;46.388;8.116;2024-01-30T09:54:15;7.30;99.90
20242;DHT22;10279;46.388;8.116;2024-01-30T09:56:43;7.30;99.90
20242;DHT22;10279;46.388;8.116;2024-01-30T09:59:10;7.40;99.90
20242;DHT22;10279;46.388;8.116;2024-01-30T10:01:38;7.40;99.90
20242;DHT22;10279;46.388;8.116;2024-01-30T10:04:07;7.40;99.90
20242;DHT22;10279;46.388;8.116;2024-01-30T10:06:34;7.50;99.90
20242;DHT22;10279;46.388;8.116;2024-01-30T10:09:01;7.60;99.90
20242;DHT22;10279;46.388;8.116;2024-01-30T10:11:29;7.60;99.90
20242;DHT22;10279;46.388;8.116;2024-01-30T10:13:56;7.70;99.90
20242;DHT22;10279;46.388;8.116;2024-01-30T10:16:23;7.90;99.90
20242;DHT22;10279;46.388;8.116;2024-01-30T10:18:51;8.20;99.90
20242;DHT22;10279;46.388;8.116;2024-01-30T10:21:18;8.60;99.90
20242;DHT22;10279;46.388;8.116;2024-01-30T10:23:45;8.90;99.90
20242;DHT22;10279;46.388;8.116;2024-01-30T10:26:12;9.10;99.90
20242;DHT22;10279;46.388;8.116;2024-01-30T10:28:40;9.30;99.90
20242;DHT22;10279;46.388;8.116;2024-01-30T10:31:07;9.60;99.90
20242;DHT22;10279;46.388;8.116;2024-01-30T10:33:35;9.80;99.90
20242;DHT22;10279;46.388;8.116;2024-01-30T10:36:06;10.00;99.90
20242;DHT22;10279;46.388;8.116;2024-01-30T10:38:33;10.30;99.90
20242;DHT22;10279;46.388;8.116;2024-01-30T10:41:01;10.50;99.90
20242;DHT22;10279;46.388;8.116;2024-01-30T10:43:39;10.80;99.90
20242;DHT22;10279;46.388;8.116;2024-01-30T10:46:10;11.00;99.90
20242;DHT22;10279;46.388;8.116;2024-01-30T10:48:43;11.00;99.90
20242;DHT22;10279;46.388;8.116;2024-01-30T10:51:13;11.00;99.90
20242;DHT22;10279;46.388;8.116;2024-01-30T10:53:41;11.00;99.90
20242;DHT22;10279;46.388;8.116;2024-01-30T10:56:10;10.90;99.90
20242;DHT22;10279;46.388;8.116;2024-01-30T10:58:38;10.80;99.90
20242;DHT22;10279;46.388;8.116;2024-01-30T11:01:07;10.80;99.90
20242;DHT22;10279;46.388;8.116;2024-01-30T11:03:35;10.90;99.90
20242;DHT22;10279;46.388;8.116;2024-01-30T11:06:03;10.90;99.90
20242;DHT22;10279;46.388;8.116;2024-01-30T11:08:32;10.80;99.90
20242;DHT22;10279;46.388;8.116;2024-01-30T11:11:00;10.80;99.90
20242;DHT22;10279;46.388;8.116;2024-01-30T11:13:30;10.80;99.90
20242;DHT22;10279;46.388;8.116;2024-01-30T11:16:05;10.80;99.90
20242;DHT22;10279;46.388;8.116;2024-01-30T11:18:35;10.90;99.90
20242;DHT22;10279;46.388;8.116;2024-01-30T11:21:05;11.10;99.90
20242;DHT22;10279;46.388;8.116;2024-01-30T11:23:33;11.20;99.90
20242;DHT22;10279;46.388;8.116;2024-01-30T11:26:01;11.30;99.90
20242;DHT22;10279;46.388;8.116;2024-01-30T11:28:33;11.50;99.90
20242;DHT22;10279;46.388;8.116;2024-01-30T11:31:06;11.60;99.90
20242;DHT22;10279;46.388;8.116;2024-01-30T11:33:34;11.70;99.90
20242;DHT22;10279;46.388;8.116;2024-01-30T11:36:02;11.80;99.90
20242;DHT22;10279;46.388;8.116;2024-01-30T11:38:29;11.80;99.90
20242;DHT22;10279;46.388;8.116;2024-01-30T11:40:56;11.90;99.90
20242;DHT22;10279;46.388;8.116;2024-01-30T11:43:24;12.10;99.90
20242;DHT22;10279;46.388;8.116;2024-01-30T11:45:51;12.10;99.90
20242;DHT22;10279;46.388;8.116;2024-01-30T11:48:19;12.20;99.90
20242;DHT22;10279;46.388;8.116;2024-01-30T11:50:47;12.20;99.90
20242;DHT22;10279;46.388;8.116;2024-01-30T11:53:17;12.30;99.90
20242;DHT22;10279;46.388;8.116;2024-01-30T11:55:50;12.40;99.90
20242;DHT22;10279;46.388;8.116;2024-01-30T11:58:17;12.30;99.90
20242;DHT22;10279;46.388;8.116;2024-01-30T12:00:55;12.30;99.40
20242;DHT22;10279;46.388;8.116;2024-01-30T12:03:23;12.40;99.90
20242;DHT22;10279;46.388;8.116;2024-01-30T12:05:57;12.60;99.90
20242;DHT22;10279;46.388;8.116;2024-01-30T12:08:28;12.70;99.60
20242;DHT22;10279;46.388;8.116;2024-01-30T12:10:57;12.80;98.60
20242;DHT22;10279;46.388;8.116;2024-01-30T12:13:26;12.80;98.70
20242;DHT22;10279;46.388;8.116;2024-01-30T12:15:59;12.70;98.40
20242;DHT22;10279;46.388;8.116;2024-01-30T12:18:26;12.60;98.40
20242;DHT22;10279;46.388;8.116;2024-01-30T12:21:00;12.50;98.80
20242;DHT22;10279;46.388;8.116;2024-01-30T12:23:28;12.40;99.00
20242;DHT22;10279;46.388;8.116;2024-01-30T12:25:55;12.30;99.50
20242;DHT22;10279;46.388;8.116;2024-01-30T12:28:23;12.30;99.60
20242;DHT22;10279;46.388;8.116;2024-01-30T12:30:50;12.20;99.70
20242;DHT22;10279;46.388;8.116;2024-01-30T12:33:17;12.20;99.70
20242;DHT22;10279;46.388;8.116;2024-01-30T12:35:46;12.40;99.90
20242;DHT22;10279;46.388;8.116;2024-01-30T12:38:28;12.80;99.20
20242;DHT22;10279;46.388;8.116;2024-01-30T12:40:55;13.30;97.40
20242;DHT22;10279;46.388;8.116;2024-01-30T12:43:24;13.50;97.10
20242;DHT22;10279;46.388;8.116;2024-01-30T12:46:04;13.60;97.70
20242;DHT22;10279;46.388;8.116;2024-01-30T12:48:31;13.70;96.90
20242;DHT22;10279;46.388;8.116;2024-01-30T12:50:59;13.60;96.50
20242;DHT22;10279;46.388;8.116;2024-01-30T12:53:26;13.50;95.70
20242;DHT22;10279;46.388;8.116;2024-01-30T12:55:53;13.40;96.00
20242;DHT22;10279;46.388;8.116;2024-01-30T12:58:21;13.30;95.90
20242;DHT22;10279;46.388;8.116;2024-01-30T13:00:48;13.30;96.00
20242;DHT22;10279;46.388;8.116;2024-01-30T13:03:16;13.20;96.40
20242;DHT22;10279;46.388;8.116;2024-01-30T13:05:43;13.20;96.10
20242;DHT22;10279;46.388;8.116;2024-01-30T13:08:10;13.20;96.00
20242;DHT22;10279;46.388;8.116;2024-01-30T13:10:37;13.20;96.70
20242;DHT22;10279;46.388;8.116;2024-01-30T13:13:04;13.20;96.30
20242;DHT22;10279;46.388;8.116;2024-01-30T13:15:40;13.20;98.60
20242;DHT22;10279;46.388;8.116;2024-01-30T13:18:07;13.00;98.90
20242;DHT22;10279;46.388;8.116;2024-01-30T13:20:34;12.80;99.50
20242;DHT22;10279;46.388;8.116;2024-01-30T13:23:02;12.60;99.50
20242;DHT22;10279;46.388;8.116;2024-01-30T13:25:29;12.30;99.90
20242;DHT22;10279;46.388;8.116;2024-01-30T13:27:56;12.20;98.90
20242;DHT22;10279;46.388;8.116;2024-01-30T13:30:23;12.20;98.50
20242;DHT22;10279;46.388;8.116;2024-01-30T13:32:51;11.90;99.00
20242;DHT22;10279;46.388;8.116;2024-01-30T13:35:18;11.70;99.60
20242;DHT22;10279;46.388;8.116;2024-01-30T13:37:45;11.60;99.30
20242;DHT22;10279;46.388;8.116;2024-01-30T13:40:14;11.50;99.10
20242;DHT22;10279;46.388;8.116;2024-01-30T13:42:43;11.20;98.90
20242;DHT22;10279;46.388;8.116;2024-01-30T13:45:10;11.10;99.80
20242;DHT22;10279;46.388;8.116;2024-01-30T13:47:38;10.90;99.90
20242;DHT22;10279;46.388;8.116;2024-01-30T13:50:06;10.70;99.90
20242;DHT22;10279;46.388;8.116;2024-01-30T13:52:35;10.70;99.90
20242;DHT22;10279;46.388;8.116;2024-01-30T13:55:10;10.60;99.90
20242;DHT22;10279;46.388;8.116;2024-01-30T13:57:38;10.60;99.90
20242;DHT22;10279;46.388;8.116;2024-01-30T14:00:06;10.60;99.90
20242;DHT22;10279;46.388;8.116;2024-01-30T14:02:34;10.60;99.90
20242;DHT22;10279;46.388;8.116;2024-01-30T14:05:01;10.70;99.90
20242;DHT22;10279;46.388;8.116;2024-01-30T14:07:29;10.80;99.90
20242;DHT22;10279;46.388;8.116;2024-01-30T14:09:56;10.90;99.90
20242;DHT22;10279;46.388;8.116;2024-01-30T14:12:23;11.20;99.90
20242;DHT22;10279;46.388;8.116;2024-01-30T14:14:50;11.40;99.90
20242;DHT22;10279;46.388;8.116;2024-01-30T14:17:18;11.60;99.90
20242;DHT22;10279;46.388;8.116;2024-01-30T14:19:45;11.60;99.50
20242;DHT22;10279;46.388;8.116;2024-01-30T14:22:12;11.50;99.70
20242;DHT22;10279;46.388;8.116;2024-01-30T14:24:39;11.50;99.90
20242;DHT22;10279;46.388;8.116;2024-01-30T14:27:06;11.50;99.70
20242;DHT22;10279;46.388;8.116;2024-01-30T14:29:35;11.60;99.90
20242;DHT22;10279;46.388;8.116;2024-01-30T14:32:02;11.70;99.80
20242;DHT22;10279;46.388;8.116;2024-01-30T14:34:31;11.70;99.60
20242;DHT22;10279;46.388;8.116;2024-01-30T14:36:58;11.70;99.60
20242;DHT22;10279;46.388;8.116;2024-01-30T14:39:25;11.70;99.90
20242;DHT22;10279;46.388;8.116;2024-01-30T14:41:52;11.50;99.50
20242;DHT22;10279;46.388;8.116;2024-01-30T14:44:20;11.40;99.90
20242;DHT22;10279;46.388;8.116;2024-01-30T14:46:47;11.30;99.90
20242;DHT22;10279;46.388;8.116;2024-01-30T14:49:14;11.20;99.90
20242;DHT22;10279;46.388;8.116;2024-01-30T14:51:42;11.10;99.90
20242;DHT22;10279;46.388;8.116;2024-01-30T14:54:09;11.00;99.90
20242;DHT22;10279;46.388;8.116;2024-01-30T14:56:38;10.90;99.90
20242;DHT22;10279;46.388;8.116;2024-01-30T14:59:05;11.00;99.90
20242;DHT22;10279;46.388;8.116;2024-01-30T15:01:32;11.00;99.90
20242;DHT22;10279;46.388;8.116;2024-01-30T15:03:59;11.00;99.90
20242;DHT22;10279;46.388;8.116;2024-01-30T15:06:27;11.00;99.90
20242;DHT22;10279;46.388;8.116;2024-01-30T15:09:03;11.00;99.90
20242;DHT22;10279;46.388;8.116;2024-01-30T15:11:31;10.90;99.90
20242;DHT22;10279;46.388;8.116;2024-01-30T15:14:00;10.90;99.90
20242;DHT22;10279;46.388;8.116;2024-01-30T15:16:27;10.80;99.90
20242;DHT22;10279;46.388;8.116;2024-01-30T15:18:55;10.60;99.90
20242;DHT22;10279;46.388;8.116;2024-01-30T15:21:22;10.60;99.90
20242;DHT22;10279;46.388;8.116;2024-01-30T15:23:52;10.50;99.90
20242;DHT22;10279;46.388;8.116;2024-01-30T15:26:19;10.40;99.90
20242;DHT22;10279;46.388;8.116;2024-01-30T15:28:46;10.20;99.90
20242;DHT22;10279;46.388;8.116;2024-01-30T15:31:13;10.10;99.90
20242;DHT22;10279;46.388;8.116;2024-01-30T15:33:40;10.10;99.90
20242;DHT22;10279;46.388;8.116;2024-01-30T15:36:10;10.10;99.90
20242;DHT22;10279;46.388;8.116;2024-01-30T15:38:40;10.10;99.90
20242;DHT22;10279;46.388;8.116;2024-01-30T15:41:08;10.20;99.90
20242;DHT22;10279;46.388;8.116;2024-01-30T15:43:35;10.20;99.90